sensor_id;sensor_type;location;lat;lon;timestamp;temperature;humidity
66629;DHT22;53532;53.084;6.352;2022-08-21T08:12:07;21.00;99.90
66629;DHT22;53532;53.084;6.352;2022-08-21T08:14:33;21.10;99.90
66629;DHT22;53532;53.084;6.352;2022-08-21T08:16:59;21.30;99.90
66629;DHT22;53532;53.084;6.352;2022-08-21T08:19:25;21.60;99.90
66629;DHT22;53532;53.084;6.352;2022-08-21T08:21:51;21.80;99.90
66629;DHT22;53532;53.084;6.352;2022-08-21T08:24:17;22.00;99.90
66629;DHT22;53532;53.084;6.352;2022-08-21T08:26:42;22.20;99.90
66629;DHT22;53532;53.084;6.352;2022-08-21T08:29:09;22.40;99.90
66629;DHT22;53532;53.084;6.352;2022-08-21T08:31:35;22.60;99.90
66629;DHT22;53532;53.084;6.352;2022-08-21T08:34:01;22.80;99.90
66629;DHT22;53532;53.084;6.352;2022-08-21T08:36:33;23.00;99.90
66629;DHT22;53532;53.084;6.352;2022-08-21T08:38:59;23.20;99.90
66629;DHT22;53532;53.084;6.352;2022-08-21T08:41:26;23.50;99.90
66629;DHT22;53532;53.084;6.352;2022-08-21T08:43:54;23.80;99.90
66629;DHT22;53532;53.084;6.352;2022-08-21T08:46:29;24.00;99.90
66629;DHT22;53532;53.084;6.352;2022-08-21T08:48:59;24.20;99.90
66629;DHT22;53532;53.084;6.352;2022-08-21T08:51:34;24.40;99.90
66629;DHT22;53532;53.084;6.352;2022-08-21T08:54:07;24.60;99.90
66629;DHT22;53532;53.084;6.352;2022-08-21T08:56:35;24.80;99.90
66629;DHT22;53532;53.084;6.352;2022-08-21T08:59:07;24.90;99.90
66629;DHT22;53532;53.084;6.352;2022-08-21T09:01:35;25.10;99.90
66629;DHT22;53532;53.084;6.352;2022-08-21T09:04:01;25.30;99.90
66629;DHT22;53532;53.084;6.352;2022-08-21T09:06:43;25.30;99.90
66629;DHT22;53532;53.084;6.352;2022-08-21T09:09:22;25.00;99.90
66629;DHT22;53532;53.084;6.352;2022-08-21T09:11:57;24.80;99.90
66629;DHT22;53532;53.084;6.352;2022-08-21T09:14:30;24.60;99.90
66629;DHT22;53532;53.084;6.352;2022-08-21T09:17:12;24.50;99.90
66629;DHT22;53532;53.084;6.352;2022-08-21T09:19:51;24.70;99.90
66629;DHT22;53532;53.084;6.352;2022-08-21T09:22:27;24.90;99.90
66629;DHT22;53532;53.084;6.352;2022-08-21T09:25:03;25.20;99.90
66629;DHT22;53532;53.084;6.352;2022-08-21T09:27:34;25.40;99.90
66629;DHT22;53532;53.084;6.352;2022-08-21T09:30:00;25.60;99.90
66629;DHT22;53532;53.084;6.352;2022-08-21T09:32:30;25.80;99.90
66629;DHT22;53532;53.084;6.352;2022-08-21T09:34:59;26.00;99.90
66629;DHT22;53532;53.084;6.352;2022-08-21T09:37:27;26.20;99.90
66629;DHT22;53532;53.084;6.352;2022-08-21T09:39:55;26.20;99.90
66629;DHT22;53532;53.084;6.352;2022-08-21T09:42:24;26.00;99.30
66629;DHT22;53532;53.084;6.352;2022-08-21T09:45:11;25.90;99.90
66629;DHT22;53532;53.084;6.352;2022-08-21T09:47:41;26.00;99.90
66629;DHT22;53532;53.084;6.352;2022-08-21T09:50:09;26.20;99.90
66629;DHT22;53532;53.084;6.352;2022-08-21T09:52:43;26.40;97.10
66629;DHT22;53532;53.084;6.352;2022-08-21T09:55:15;26.70;94.10
66629;DHT22;53532;53.084;6.352;2022-08-21T09:58:02;26.70;90.00
66629;DHT22;53532;53.084;6.352;2022-08-21T10:00:30;26.80;93.70
66629;DHT22;53532;53.084;6.352;2022-08-21T10:03:10;26.90;88.80
66629;DHT22;53532;53.084;6.352;2022-08-21T10:05:37;26.80;91.90
66629;DHT22;53532;53.084;6.352;2022-08-21T10:08:03;26.60;92.00
66629;DHT22;53532;53.084;6.352;2022-08-21T10:10:32;26.50;92.90
66629;DHT22;53532;53.084;6.352;2022-08-21T10:13:07;26.60;90.80
66629;DHT22;53532;53.084;6.352;2022-08-21T10:15:44;26.80;88.30
66629;DHT22;53532;53.084;6.352;2022-08-21T10:18:22;27.10;84.60
66629;DHT22;53532;53.084;6.352;2022-08-21T10:20:54;27.40;79.40
66629;DHT22;53532;53.084;6.352;2022-08-21T10:23:34;27.30;75.70
66629;DHT22;53532;53.084;6.352;2022-08-21T10:26:10;27.20;78.30
66629;DHT22;53532;53.084;6.352;2022-08-21T10:28:59;27.20;76.40
66629;DHT22;53532;53.084;6.352;2022-08-21T10:31:34;27.30;79.90
66629;DHT22;53532;53.084;6.352;2022-08-21T10:34:11;27.50;76.60
66629;DHT22;53532;53.084;6.352;2022-08-21T10:36:44;27.40;73.60
66629;DHT22;53532;53.084;6.352;2022-08-21T10:39:18;27.10;73.10
66629;DHT22;53532;53.084;6.352;2022-08-21T10:42:03;26.80;74.20
66629;DHT22;53532;53.084;6.352;2022-08-21T10:44:37;26.40;77.70
66629;DHT22;53532;53.084;6.352;2022-08-21T10:47:13;26.10;77.60
66629;DHT22;53532;53.084;6.352;2022-08-21T10:49:47;25.90;78.40
66629;DHT22;53532;53.084;6.352;2022-08-21T10:52:33;26.00;85.90
66629;DHT22;53532;53.084;6.352;2022-08-21T10:55:06;26.30;86.60
66629;DHT22;53532;53.084;6.352;2022-08-21T10:57:38;26.70;84.40
66629;DHT22;53532;53.084;6.352;2022-08-21T11:00:08;27.10;81.80
66629;DHT22;53532;53.084;6.352;2022-08-21T11:02:40;27.40;76.30
66629;DHT22;53532;53.084;6.352;2022-08-21T11:05:13;27.30;71.10
66629;DHT22;53532;53.084;6.352;2022-08-21T11:07:47;27.00;70.90
66629;DHT22;53532;53.084;6.352;2022-08-21T11:10:17;26.70;71.30
66629;DHT22;53532;53.084;6.352;2022-08-21T11:12:48;26.40;73.10
66629;DHT22;53532;53.084;6.352;2022-08-21T11:15:26;26.10;76.30
66629;DHT22;53532;53.084;6.352;2022-08-21T11:17:55;25.80;76.80
66629;DHT22;53532;53.084;6.352;2022-08-21T11:20:30;25.50;81.20
66629;DHT22;53532;53.084;6.352;2022-08-21T11:23:03;25.30;90.20
66629;DHT22;53532;53.084;6.352;2022-08-21T11:25:35;25.30;97.00
66629;DHT22;53532;53.084;6.352;2022-08-21T11:28:06;25.30;95.90
66629;DHT22;53532;53.084;6.352;2022-08-21T11:30:42;25.30;95.50
66629;DHT22;53532;53.084;6.352;2022-08-21T11:33:23;25.20;95.80
66629;DHT22;53532;53.084;6.352;2022-08-21T11:35:57;25.10;97.50
66629;DHT22;53532;53.084;6.352;2022-08-21T11:38:35;25.10;99.90
66629;DHT22;53532;53.084;6.352;2022-08-21T11:41:13;25.00;99.90
66629;DHT22;53532;53.084;6.352;2022-08-21T11:43:45;25.30;99.90
66629;DHT22;53532;53.084;6.352;2022-08-21T11:46:19;25.70;99.90
66629;DHT22;53532;53.084;6.352;2022-08-21T11:48:56;26.00;97.40
66629;DHT22;53532;53.084;6.352;2022-08-21T11:51:31;26.40;93.20
66629;DHT22;53532;53.084;6.352;2022-08-21T11:54:03;26.70;80.90
66629;DHT22;53532;53.084;6.352;2022-08-21T11:56:37;26.90;73.30
66629;DHT22;53532;53.084;6.352;2022-08-21T11:59:10;27.00;70.80
66629;DHT22;53532;53.084;6.352;2022-08-21T12:01:40;27.20;69.80
66629;DHT22;53532;53.084;6.352;2022-08-21T12:04:08;27.30;68.20
66629;DHT22;53532;53.084;6.352;2022-08-21T12:06:39;27.30;67.70
66629;DHT22;53532;53.084;6.352;2022-08-21T12:09:08;27.20;66.40
66629;DHT22;53532;53.084;6.352;2022-08-21T12:11:46;27.00;65.50
66629;DHT22;53532;53.084;6.352;2022-08-21T12:14:15;26.80;67.10
66629;DHT22;53532;53.084;6.352;2022-08-21T12:16:44;26.70;67.00
66629;DHT22;53532;53.084;6.352;2022-08-21T12:19:11;26.50;68.00
66629;DHT22;53532;53.084;6.352;2022-08-21T12:21:51;26.40;67.20
66629;DHT22;53532;53.084;6.352;2022-08-21T12:24:19;26.20;67.30
66629;DHT22;53532;53.084;6.352;2022-08-21T12:26:51;25.90;68.60
66629;DHT22;53532;53.084;6.352;2022-08-21T12:29:22;25.70;69.30
66629;DHT22;53532;53.084;6.352;2022-08-21T12:31:54;25.60;73.10
66629;DHT22;53532;53.084;6.352;2022-08-21T12:34:23;25.50;75.80
66629;DHT22;53532;53.084;6.352;2022-08-21T12:36:56;25.40;78.30
66629;DHT22;53532;53.084;6.352;2022-08-21T12:39:25;25.40;74.50
66629;DHT22;53532;53.084;6.352;2022-08-21T12:41:57;25.30;79.40
66629;DHT22;53532;53.084;6.352;2022-08-21T12:44:28;25.30;82.90
66629;DHT22;53532;53.084;6.352;2022-08-21T12:46:57;25.30;84.30
66629;DHT22;53532;53.084;6.352;2022-08-21T12:49:27;25.30;81.90
66629;DHT22;53532;53.084;6.352;2022-08-21T12:51:58;25.30;80.20
66629;DHT22;53532;53.084;6.352;2022-08-21T12:54:28;25.20;79.20
66629;DHT22;53532;53.084;6.352;2022-08-21T12:56:59;25.10;78.10
66629;DHT22;53532;53.084;6.352;2022-08-21T12:59:25;25.10;77.70
66629;DHT22;53532;53.084;6.352;2022-08-21T13:01:52;24.90;77.80
66629;DHT22;53532;53.084;6.352;2022-08-21T13:04:25;24.80;81.60
66629;DHT22;53532;53.084;6.352;2022-08-21T13:06:55;24.60;84.60
66629;DHT22;53532;53.084;6.352;2022-08-21T13:09:26;24.40;85.70
66629;DHT22;53532;53.084;6.352;2022-08-21T13:11:53;24.20;84.90
66629;DHT22;53532;53.084;6.352;2022-08-21T13:14:24;24.10;86.90
66629;DHT22;53532;53.084;6.352;2022-08-21T13:16:53;23.90;83.70
66629;DHT22;53532;53.084;6.352;2022-08-21T13:19:19;23.80;88.30
66629;DHT22;53532;53.084;6.352;2022-08-21T13:21:45;23.60;90.80
66629;DHT22;53532;53.084;6.352;2022-08-21T13:24:19;23.50;92.10
66629;DHT22;53532;53.084;6.352;2022-08-21T13:26:45;23.50;93.30
66629;DHT22;53532;53.084;6.352;2022-08-21T13:29:13;23.40;95.10
66629;DHT22;53532;53.084;6.352;2022-08-21T13:31:41;23.50;94.70
66629;DHT22;53532;53.084;6.352;2022-08-21T13:34:09;23.50;94.50
66629;DHT22;53532;53.084;6.352;2022-08-21T13:36:39;23.70;96.80
66629;DHT22;53532;53.084;6.352;2022-08-21T13:39:09;23.80;99.10
66629;DHT22;53532;53.084;6.352;2022-08-21T13:41:40;24.00;99.90
66629;DHT22;53532;53.084;6.352;2022-08-21T13:44:16;24.20;97.90
66629;DHT22;53532;53.084;6.352;2022-08-21T13:46:42;24.30;98.00
66629;DHT22;53532;53.084;6.352;2022-08-21T13:49:10;24.40;98.50
66629;DHT22;53532;53.084;6.352;2022-08-21T13:51:39;24.60;97.20
66629;DHT22;53532;53.084;6.352;2022-08-21T13:54:15;24.80;94.60
66629;DHT22;53532;53.084;6.352;2022-08-21T13:56:44;25.10;93.20
66629;DHT22;53532;53.084;6.352;2022-08-21T13:59:11;25.40;87.80
66629;DHT22;53532;53.084;6.352;2022-08-21T14:01:39;25.60;74.60
66629;DHT22;53532;53.084;6.352;2022-08-21T14:04:20;25.60;75.30
66629;DHT22;53532;53.084;6.352;2022-08-21T14:06:46;25.70;77.90
66629;DHT22;53532;53.084;6.352;2022-08-21T14:09:28;25.70;74.30
66629;DHT22;53532;53.084;6.352;2022-08-21T14:11:58;25.80;72.20
66629;DHT22;53532;53.084;6.352;2022-08-21T14:14:27;25.70;73.10
66629;DHT22;53532;53.084;6.352;2022-08-21T14:16:57;25.80;70.70
66629;DHT22;53532;53.084;6.352;2022-08-21T14:19:25;25.80;70.10
66629;DHT22;53532;53.084;6.352;2022-08-21T14:21:51;25.80;71.20
66629;DHT22;53532;53.084;6.352;2022-08-21T14:24:27;25.80;70.30
66629;DHT22;53532;53.084;6.352;2022-08-21T14:26:56;25.60;67.50
66629;DHT22;53532;53.084;6.352;2022-08-21T14:29:26;25.50;69.10
66629;DHT22;53532;53.084;6.352;2022-08-21T14:31:54;25.50;68.90
66629;DHT22;53532;53.084;6.352;2022-08-21T14:34:21;25.50;68.10
66629;DHT22;53532;53.084;6.352;2022-08-21T14:36:48;25.50;65.60
66629;DHT22;53532;53.084;6.352;2022-08-21T14:39:14;25.40;64.10
66629;DHT22;53532;53.084;6.352;2022-08-21T14:41:41;25.40;63.50
66629;DHT22;53532;53.084;6.352;2022-08-21T14:44:09;25.40;66.20
66629;DHT22;53532;53.084;6.352;2022-08-21T14:46:36;25.50;64.10
66629;DHT22;53532;53.084;6.352;2022-08-21T14:49:03;25.60;65.60
66629;DHT22;53532;53.084;6.352;2022-08-21T14:51:29;25.80;64.60
66629;DHT22;53532;53.084;6.352;2022-08-21T14:53:55;25.90;64.80
66629;DHT22;53532;53.084;6.352;2022-08-21T14:56:21;26.00;63.30
66629;DHT22;53532;53.084;6.352;2022-08-21T14:58:49;26.20;62.70
66629;DHT22;53532;53.084;6.352;2022-08-21T15:01:20;26.20;61.70
66629;DHT22;53532;53.084;6.352;2022-08-21T15:03:48;26.20;61.60
66629;DHT22;53532;53.084;6.352;2022-08-21T15:06:15;26.20;61.60
66629;DHT22;53532;53.084;6.352;2022-08-21T15:08:41;26.20;63.40
66629;DHT22;53532;53.084;6.352;2022-08-21T15:11:08;26.10;62.60
66629;DHT22;53532;53.084;6.352;2022-08-21T15:13:37;26.00;62.50
66629;DHT22;53532;53.084;6.352;2022-08-21T15:16:03;25.90;61.30
66629;DHT22;53532;53.084;6.352;2022-08-21T15:18:32;25.80;61.50
66629;DHT22;53532;53.084;6.352;2022-08-21T15:20:57;25.80;62.00
66629;DHT22;53532;53.084;6.352;2022-08-21T15:23:23;25.70;62.60
66629;DHT22;53532;53.084;6.352;2022-08-21T15:25:50;25.50;60.60
66629;DHT22;53532;53.084;6.352;2022-08-21T15:28:18;25.40;60.30
66629;DHT22;53532;53.084;6.352;2022-08-21T15:30:45;25.30;63.10
66629;DHT22;53532;53.084;6.352;2022-08-21T15:33:11;25.20;63.00
66629;DHT22;53532;53.084;6.352;2022-08-21T15:35:39;25.10;64.60
66629;DHT22;53532;53.084;6.352;2022-08-21T15:38:05;25.10;64.40
66629;DHT22;53532;53.084;6.352;2022-08-21T15:40:31;25.10;62.30
66629;DHT22;53532;53.084;6.352;2022-08-21T15:42:59;25.10;62.50
66629;DHT22;53532;53.084;6.352;2022-08-21T15:45:26;25.00;62.90
66629;DHT22;53532;53.084;6.352;2022-08-21T15:47:52;24.90;62.80
66629;DHT22;53532;53.084;6.352;2022-08-21T15:50:19;24.70;63.20
66629;DHT22;53532;53.084;6.352;2022-08-21T15:52:46;24.70;66.30
66629;DHT22;53532;53.084;6.352;2022-08-21T15:55:12;24.60;65.60
66629;DHT22;53532;53.084;6.352;2022-08-21T15:57:44;24.60;64.10
66629;DHT22;53532;53.084;6.352;2022-08-21T16:00:13;24.50;65.60
66629;DHT22;53532;53.084;6.352;2022-08-21T16:02:43;24.50;65.20
66629;DHT22;53532;53.084;6.352;2022-08-21T16:05:11;24.40;64.60
66629;DHT22;53532;53.084;6.352;2022-08-21T16:07:37;24.40;64.80
66629;DHT22;53532;53.084;6.352;2022-08-21T16:10:06;24.30;65.50
66629;DHT22;53532;53.084;6.352;2022-08-21T16:12:36;24.20;66.20
66629;DHT22;53532;53.084;6.352;2022-08-21T16:15:06;24.20;68.80
66629;DHT22;53532;53.084;6.352;2022-08-21T16:17:34;24.10;68.30
66629;DHT22;53532;53.084;6.352;2022-08-21T16:20:02;24.10;68.60
66629;DHT22;53532;53.084;6.352;2022-08-21T16:22:28;24.10;70.00
66629;DHT22;53532;53.084;6.352;2022-08-21T16:24:54;24.10;70.40
66629;DHT22;53532;53.084;6.352;2022-08-21T16:27:21;24.10;72.20
66629;DHT22;53532;53.084;6.352;2022-08-21T16:29:48;24.10;74.20
66629;DHT22;53532;53.084;6.352;2022-08-21T16:32:14;24.00;74.70
66629;DHT22;53532;53.084;6.352;2022-08-21T16:34:45;23.90;74.70
66629;DHT22;53532;53.084;6.352;2022-08-21T16:37:12;23.80;75.60
66629;DHT22;53532;53.084;6.352;2022-08-21T16:39:38;23.70;75.00
66629;DHT22;53532;53.084;6.352;2022-08-21T16:42:04;23.60;76.50
66629;DHT22;53532;53.084;6.352;2022-08-21T16:44:32;23.50;78.40
66629;DHT22;53532;53.084;6.352;2022-08-21T16:47:01;23.30;79.80
66629;DHT22;53532;53.084;6.352;2022-08-21T16:49:27;23.30;81.90
66629;DHT22;53532;53.084;6.352;2022-08-21T16:51:53;23.20;80.70
66629;DHT22;53532;53.084;6.352;2022-08-21T16:54:18;23.20;82.60
66629;DHT22;53532;53.084;6.352;2022-08-21T16:56:45;23.20;84.00
